createdAt,value
2019-04-19T00:01:28.775Z,72.50
2019-04-19T00:04:06.935Z,73.20
2019-04-19T00:06:39.157Z,73.50
2019-04-19T00:09:24.659Z,73.80
2019-04-19T00:11:44.207Z,74.80
2019-04-19T00:14:08.570Z,75.30
2019-04-19T00:16:38.438Z,75.40
2019-04-19T00:19:38.525Z,75.30
2019-04-19T00:22:04.774Z,76.40
2019-04-19T00:24:07.994Z,76.70
2019-04-19T00:26:37.878Z,77.40
2019-04-19T00:29:16.236Z,78.90
2019-04-19T00:31:47.223Z,79.70
2019-04-19T00:34:08.369Z,79.50
2019-04-19T00:36:38.292Z,79.80
2019-04-19T00:39:35.646Z,80.20
2019-04-19T00:42:22.219Z,81.20
2019-04-19T00:44:56.774Z,81.90
2019-04-19T00:47:23.255Z,82.90
2019-04-19T00:49:55.405Z,84.50
2019-04-19T00:52:23.463Z,86.40
2019-04-19T00:54:52.876Z,88.30
2019-04-19T00:57:20.443Z,89.10
2019-04-19T00:59:45.274Z,89.10
2019-04-19T01:02:16.660Z,88.40
2019-04-19T01:04:41.354Z,89.40
2019-04-19T01:07:18.730Z,90.10
2019-04-19T01:09:49.908Z,90.10
2019-04-19T01:12:22.724Z,90.10
2019-04-19T01:14:50.853Z,90.50
2019-04-19T01:17:25.563Z,91.60
2019-04-19T01:19:48.936Z,92.30
2019-04-19T01:22:18.284Z,92.50
2019-04-19T01:24:47.605Z,93.00
2019-04-19T01:27:19.584Z,93.70
2019-04-19T01:29:48.890Z,94.00
2019-04-19T01:32:18.274Z,94.30
2019-04-19T01:34:46.733Z,94.30
2019-04-19T01:37:20.636Z,94.40
2019-04-19T01:40:05.828Z,95.10
2019-04-19T01:42:36.816Z,95.20
2019-04-19T01:45:22.225Z,94.90
2019-04-19T01:47:59.971Z,95.10
2019-04-19T01:50:50.777Z,95.70
2019-04-19T01:53:22.865Z,96.10
2019-04-19T01:55:37.216Z,95.90
2019-04-19T01:58:08.264Z,95.90
2019-04-19T02:00:39.734Z,97.10
2019-04-19T02:03:07.568Z,97.80
2019-04-19T02:05:36.140Z,97.70
2019-04-19T02:08:09.424Z,99.50
2019-04-19T02:11:26.894Z,99.70
2019-04-19T02:13:52.127Z,97.90
2019-04-19T02:16:17.994Z,98.00
2019-04-19T02:18:41.618Z,98.90
2019-04-19T02:21:12.940Z,99.90
2019-04-19T02:23:45.475Z,98.50
2019-04-19T02:26:14.628Z,97.60
2019-04-19T02:28:42.995Z,97.00
2019-04-19T02:31:40.287Z,97.00
2019-04-19T02:34:19.182Z,97.10
2019-04-19T02:36:47.537Z,97.90
2019-04-19T02:39:14.142Z,99.90
2019-04-19T02:41:38.707Z,99.80
2019-04-19T02:51:44.968Z,99.90
2019-04-19T02:54:22.694Z,99.90
2019-04-19T03:02:32.269Z,99.90
2019-04-19T03:07:01.110Z,99.90
2019-04-19T03:09:32.837Z,99.90
2019-04-19T03:12:12.577Z,99.90
2019-04-19T03:14:46.496Z,99.90
2019-04-19T03:17:19.073Z,99.90
2019-04-19T03:19:44.220Z,99.90
2019-04-19T03:22:16.410Z,99.90
2019-04-19T03:24:47.857Z,99.90
2019-04-19T03:27:09.609Z,99.90
2019-04-19T03:29:35.201Z,99.90
2019-04-19T03:32:44.856Z,99.90
2019-04-19T03:34:57.384Z,99.90
2019-04-19T03:37:21.240Z,99.90
2019-04-19T03:40:00.696Z,99.90
2019-04-19T03:42:34.888Z,99.90
2019-04-19T03:45:01.681Z,99.90
2019-04-19T03:47:37.750Z,99.90
2019-04-19T03:50:03.060Z,99.90
2019-04-19T03:52:33.341Z,99.90
2019-04-19T03:55:04.787Z,99.90
2019-04-19T03:57:27.300Z,99.90
2019-04-19T03:59:45.866Z,99.90
2019-04-19T04:02:20.079Z,99.90
2019-04-19T04:04:53.717Z,99.90
2019-04-19T04:07:21.893Z,99.90
2019-04-19T04:09:57.320Z,99.90
2019-04-19T04:12:44.262Z,99.90
2019-04-19T04:15:40.501Z,99.90
2019-04-19T04:17:58.182Z,99.90
2019-04-19T04:20:30.645Z,99.90
2019-04-19T04:23:03.526Z,99.90
2019-04-19T04:25:41.249Z,99.90
2019-04-19T04:28:08.977Z,99.90
2019-04-19T04:30:37.958Z,99.90
2019-04-19T04:33:10.406Z,99.90
2019-04-19T04:35:49.462Z,99.90
2019-04-19T04:38:13.719Z,99.90
2019-04-19T04:40:32.136Z,99.90
2019-04-19T04:43:15.069Z,99.90
2019-04-19T04:46:05.255Z,99.90
2019-04-19T04:48:32.414Z,99.90
2019-04-19T04:51:15.379Z,99.90
2019-04-19T04:53:44.812Z,99.90
2019-04-19T04:56:17.418Z,99.90
2019-04-19T04:58:47.818Z,99.90
2019-04-19T05:01:29.140Z,99.90
2019-04-19T05:04:04.467Z,99.90
2019-04-19T05:06:34.378Z,99.90
2019-04-19T05:09:04.560Z,99.90
2019-04-19T05:11:33.994Z,99.90
2019-04-19T05:14:08.190Z,99.90
2019-04-19T05:19:08.153Z,99.90
2019-04-19T05:21:36.340Z,99.90
2019-04-19T05:24:09.326Z,99.90
2019-04-19T05:29:06.300Z,99.90
2019-04-19T05:31:31.170Z,99.90
2019-04-19T05:34:19.271Z,99.90
2019-04-19T05:36:43.668Z,99.90
2019-04-19T05:39:19.983Z,99.90
2019-04-19T05:41:59.826Z,99.90
2019-04-19T05:45:09.285Z,99.90
2019-04-19T05:47:22.725Z,99.90
2019-04-19T05:49:52.392Z,99.90
2019-04-19T05:52:24.274Z,99.90
2019-04-19T05:54:34.753Z,99.90
2019-04-19T05:57:25.657Z,99.90
2019-04-19T05:59:44.595Z,99.90
2019-04-19T06:02:16.807Z,99.90
2019-04-19T06:05:01.389Z,99.90
2019-04-19T06:07:24.534Z,99.90
2019-04-19T06:09:36.763Z,99.90
2019-04-19T06:12:14.606Z,99.90
2019-04-19T06:15:01.109Z,99.90
2019-04-19T06:17:36.798Z,99.90
2019-04-19T06:20:13.931Z,99.90
2019-04-19T06:22:39.459Z,99.90
2019-04-19T06:25:08.542Z,99.90
2019-04-19T06:27:55.393Z,99.90
2019-04-19T06:30:16.131Z,99.90
2019-04-19T06:32:46.115Z,99.90
2019-04-19T06:35:05.383Z,99.90
2019-04-19T06:37:27.625Z,99.90
2019-04-19T06:40:04.912Z,99.90
2019-04-19T06:42:36.036Z,99.90
2019-04-19T06:45:13.448Z,99.90
2019-04-19T06:47:33.739Z,99.90
2019-04-19T06:49:57.360Z,99.90
2019-04-19T06:52:31.391Z,99.90
2019-04-19T06:54:57.887Z,99.90
2019-04-19T06:57:32.589Z,99.90
2019-04-19T07:00:11.578Z,99.90
2019-04-19T07:02:28.370Z,99.90
2019-04-19T07:05:17.607Z,99.90
2019-04-19T07:07:50.744Z,99.90
2019-04-19T07:10:30.415Z,99.90
2019-04-19T07:12:50.459Z,99.90
2019-04-19T07:15:30.123Z,99.90
2019-04-19T07:17:46.176Z,99.90
2019-04-19T07:20:16.726Z,99.90
2019-04-19T07:22:48.364Z,99.90
2019-04-19T07:25:25.767Z,99.90
2019-04-19T07:27:44.278Z,99.90
2019-04-19T07:30:03.886Z,99.90
2019-04-19T07:32:39.126Z,99.90
2019-04-19T07:35:15.684Z,99.90
2019-04-19T07:37:47.360Z,99.90
2019-04-19T07:40:26.966Z,99.90
2019-04-19T07:42:51.306Z,99.90
2019-04-19T07:45:24.024Z,99.90
2019-04-19T07:47:57.521Z,99.90
2019-04-19T07:50:24.836Z,99.90
2019-04-19T07:52:55.435Z,99.90
2019-04-19T07:55:20.742Z,99.90
2019-04-19T07:58:24.969Z,99.90
2019-04-19T08:01:00.749Z,99.90
2019-04-19T08:03:25.959Z,99.90
2019-04-19T08:08:32.541Z,99.90
2019-04-19T08:13:31.594Z,99.90
2019-04-19T08:15:55.007Z,99.90
2019-04-19T08:28:10.560Z,99.90
2019-04-19T08:30:34.805Z,99.90
2019-04-19T08:32:57.611Z,99.90
2019-04-19T08:35:27.570Z,99.90
2019-04-19T08:38:03.393Z,99.90
2019-04-19T08:40:43.255Z,99.90
2019-04-19T08:43:17.347Z,99.90
2019-04-19T08:45:36.344Z,99.90
2019-04-19T08:48:34.794Z,99.90
2019-04-19T08:50:58.469Z,99.90
2019-04-19T08:53:43.993Z,99.90
2019-04-19T08:56:11.729Z,99.90
2019-04-19T08:58:47.992Z,99.90
2019-04-19T09:01:20.928Z,99.90
2019-04-19T09:03:54.166Z,99.90
2019-04-19T09:06:56.577Z,99.90
2019-04-19T09:08:47.550Z,99.90
2019-04-19T09:11:16.648Z,99.90
2019-04-19T09:13:52.183Z,99.90
2019-04-19T09:16:23.260Z,99.90
2019-04-19T09:18:59.518Z,99.90
2019-04-19T09:21:18.157Z,99.90
2019-04-19T09:23:42.455Z,99.90
2019-04-19T09:26:23.514Z,99.90
2019-04-19T09:28:57.656Z,99.90
2019-04-19T09:31:25.364Z,99.90
2019-04-19T09:33:40.681Z,99.90
2019-04-19T09:36:12.047Z,99.90
2019-04-19T09:38:55.538Z,99.90
2019-04-19T09:41:19.378Z,99.90
2019-04-19T09:43:52.211Z,99.40
2019-04-19T09:46:10.299Z,99.90
2019-04-19T09:48:55.406Z,99.60
2019-04-19T09:51:29.063Z,99.10
2019-04-19T09:54:11.409Z,98.80
2019-04-19T09:56:31.157Z,98.30
2019-04-19T09:58:53.985Z,97.70
2019-04-19T10:01:14.579Z,97.30
2019-04-19T10:03:49.339Z,96.90
2019-04-19T10:06:15.150Z,96.40
2019-04-19T10:08:43.893Z,96.00
2019-04-19T10:11:12.838Z,95.80
2019-04-19T10:13:42.076Z,95.70
2019-04-19T10:16:24.443Z,96.40
2019-04-19T10:18:59.295Z,95.70
2019-04-19T10:21:49.439Z,94.70
2019-04-19T10:24:20.968Z,94.40
2019-04-19T10:26:56.809Z,95.30
2019-04-19T10:29:31.861Z,94.50
2019-04-19T10:32:00.007Z,94.60
2019-04-19T10:34:28.711Z,94.50
2019-04-19T10:36:59.941Z,94.20
2019-04-19T10:39:29.801Z,93.90
2019-04-19T10:41:58.746Z,93.90
2019-04-19T10:44:27.414Z,92.40
2019-04-19T10:46:56.665Z,92.30
2019-04-19T10:49:34.307Z,91.90
2019-04-19T10:52:04.882Z,91.80
2019-04-19T10:54:33.625Z,91.60
2019-04-19T10:57:33.669Z,90.90
2019-04-19T11:00:03.629Z,90.40
2019-04-19T11:02:34.464Z,90.20
2019-04-19T11:05:05.230Z,89.50
2019-04-19T11:07:35.245Z,89.10
2019-04-19T11:10:04.894Z,89.00
2019-04-19T11:12:34.337Z,88.50
2019-04-19T11:15:04.432Z,85.70
2019-04-19T11:17:33.817Z,84.00
2019-04-19T11:20:17.017Z,84.80
2019-04-19T11:22:32.937Z,83.80
2019-04-19T11:25:02.046Z,82.60
2019-04-19T11:27:31.138Z,82.50
2019-04-19T11:30:03.348Z,80.00
2019-04-19T11:32:57.201Z,79.00
2019-04-19T11:35:28.041Z,77.80
2019-04-19T11:37:57.218Z,79.00
2019-04-19T11:40:27.124Z,78.30
2019-04-19T11:42:55.864Z,77.30
2019-04-19T11:45:25.930Z,76.00
2019-04-19T11:47:55.400Z,76.00
2019-04-19T11:50:25.151Z,73.40
2019-04-19T11:53:14.297Z,69.60
2019-04-19T11:55:46.531Z,66.60
2019-04-19T11:58:16.752Z,63.30
2019-04-19T12:01:12.079Z,60.40
2019-04-19T12:03:43.506Z,57.30
2019-04-19T12:06:12.156Z,56.30
2019-04-19T12:08:42.763Z,55.90
2019-04-19T12:11:12.635Z,53.10
2019-04-19T12:13:41.470Z,51.30
2019-04-19T12:16:10.875Z,50.60
2019-04-19T12:18:41.718Z,48.90
2019-04-19T12:21:11.277Z,50.00
2019-04-19T12:23:41.089Z,49.70
2019-04-19T12:26:09.866Z,49.60
2019-04-19T12:28:39.682Z,48.00
2019-04-19T12:31:09.446Z,47.30
2019-04-19T12:33:39.465Z,46.10
2019-04-19T12:36:08.526Z,45.60
2019-04-19T12:38:37.899Z,45.60
2019-04-19T12:41:07.976Z,45.10
2019-04-19T12:43:38.010Z,44.70
2019-04-19T12:46:07.351Z,44.70
2019-04-19T12:48:37.489Z,45.30
2019-04-19T12:51:07.829Z,44.70
2019-04-19T12:53:37.000Z,45.80
2019-04-19T12:56:06.267Z,45.00
2019-04-19T12:58:35.804Z,45.00
2019-04-19T13:01:14.220Z,45.00
2019-04-19T13:03:54.765Z,44.20
2019-04-19T13:06:27.253Z,42.80
2019-04-19T13:08:57.078Z,41.50
2019-04-19T13:11:27.107Z,41.00
2019-04-19T13:13:57.544Z,41.70
2019-04-19T13:16:26.333Z,41.70
2019-04-19T13:18:56.206Z,41.50
2019-04-19T13:21:26.231Z,43.20
2019-04-19T13:23:56.004Z,41.80
2019-04-19T13:26:25.254Z,41.70
2019-04-19T13:28:53.957Z,41.60
2019-04-19T13:31:23.136Z,41.00
2019-04-19T13:33:53.147Z,40.80
2019-04-19T13:36:35.821Z,41.60
2019-04-19T13:39:25.820Z,41.30
2019-04-19T13:41:58.954Z,41.10
2019-04-19T13:44:29.105Z,40.90
2019-04-19T13:46:58.856Z,40.30
2019-04-19T13:49:28.590Z,40.50
2019-04-19T13:51:58.647Z,40.40
2019-04-19T13:54:27.508Z,40.50
2019-04-19T13:56:57.568Z,40.60
2019-04-19T13:59:41.045Z,41.20
2019-04-19T14:01:56.739Z,40.10
2019-04-19T14:04:25.857Z,40.20
2019-04-19T14:06:54.564Z,40.20
2019-04-19T14:09:23.315Z,40.50
2019-04-19T14:11:53.237Z,39.40
2019-04-19T14:14:23.205Z,39.60
2019-04-19T14:16:51.987Z,40.30
2019-04-19T14:19:20.677Z,41.70
2019-04-19T14:21:49.304Z,41.80
2019-04-19T14:24:17.964Z,41.80
2019-04-19T14:26:51.754Z,41.40
2019-04-19T14:29:17.208Z,41.70
2019-04-19T14:31:46.377Z,41.50
2019-04-19T15:24:05.966Z,43.30
2019-04-19T15:26:34.506Z,43.10
2019-04-19T15:29:02.985Z,43.20
2019-04-19T15:31:32.233Z,43.00
2019-04-19T15:34:00.838Z,43.40
2019-04-19T15:36:28.884Z,43.80
2019-04-19T15:38:57.721Z,44.40
2019-04-19T15:41:26.718Z,44.80
2019-04-19T15:43:54.520Z,45.10
2019-04-19T15:46:22.392Z,45.20
2019-04-19T15:48:53.823Z,45.30
2019-04-19T15:51:26.895Z,44.80
2019-04-19T15:53:51.735Z,44.40
2019-04-19T15:56:20.273Z,44.80
2019-04-19T15:58:48.949Z,45.30
2019-04-19T16:01:19.732Z,45.30
2019-04-19T16:03:54.516Z,45.40
2019-04-19T16:06:40.581Z,45.60
2019-04-19T16:09:21.467Z,45.80
2019-04-19T16:12:08.059Z,46.10
2019-04-19T16:14:36.081Z,46.10
2019-04-19T16:17:05.206Z,46.10
2019-04-19T16:19:34.191Z,46.00
2019-04-19T16:22:03.924Z,46.20
2019-04-19T16:24:31.784Z,46.30
2019-04-19T16:27:00.452Z,46.50
2019-04-19T16:29:38.705Z,46.50
2019-04-19T16:31:58.734Z,46.00
2019-04-19T16:34:27.191Z,46.10
2019-04-19T16:36:56.251Z,45.90
2019-04-19T16:39:26.755Z,46.10
2019-04-19T16:41:55.083Z,46.20
2019-04-19T16:44:23.520Z,46.80
2019-04-19T16:46:51.482Z,46.30
2019-04-19T16:49:20.358Z,46.40
2019-04-19T16:51:53.558Z,46.60
2019-04-19T16:54:18.440Z,46.60
2019-04-19T16:56:46.307Z,46.50
2019-04-19T16:59:14.303Z,46.70
2019-04-19T17:01:43.010Z,46.80
2019-04-19T17:04:11.349Z,47.00
2019-04-19T17:06:40.422Z,47.20
2019-04-19T17:09:09.309Z,47.30
2019-04-19T17:11:37.648Z,47.30
2019-04-19T17:14:07.075Z,47.30
2019-04-19T17:17:07.014Z,47.40
2019-04-19T17:19:57.352Z,47.40
2019-04-19T17:22:40.872Z,47.80
2019-04-19T17:25:11.021Z,47.80
2019-04-19T17:27:39.272Z,48.00
2019-04-19T17:30:08.754Z,48.10
2019-04-19T17:32:36.595Z,48.40
2019-04-19T17:35:05.977Z,48.60
2019-04-19T17:37:34.072Z,49.00
2019-04-19T17:40:02.869Z,49.00
2019-04-19T17:42:31.075Z,49.00
2019-04-19T17:44:59.808Z,49.40
2019-04-19T17:47:32.907Z,49.60
2019-04-19T17:49:58.329Z,50.50
2019-04-19T17:52:29.732Z,50.10
2019-04-19T17:55:05.951Z,50.20
2019-04-19T17:57:25.337Z,50.40
2019-04-19T17:59:54.312Z,50.50
2019-04-19T18:02:23.311Z,50.50
2019-04-19T18:04:51.635Z,50.60
2019-04-19T18:07:19.417Z,50.80
2019-04-19T18:09:51.797Z,50.90
2019-04-19T18:12:17.121Z,50.90
2019-04-19T18:14:45.741Z,51.10
2019-04-19T18:17:14.609Z,51.10
2019-04-19T18:19:44.050Z,50.60
2019-04-19T18:22:21.935Z,51.80
2019-04-19T18:24:47.721Z,51.40
2019-04-19T18:27:17.012Z,51.50
2019-04-19T18:29:40.617Z,51.60
2019-04-19T18:32:21.075Z,51.60
2019-04-19T18:34:48.968Z,51.70
2019-04-19T18:37:18.645Z,52.00
2019-04-19T18:39:46.391Z,52.10
2019-04-19T18:42:14.173Z,52.20
2019-04-19T18:44:47.880Z,52.10
2019-04-19T18:47:12.397Z,52.20
2019-04-19T18:49:41.500Z,52.30
2019-04-19T18:52:21.940Z,52.60
2019-04-19T18:54:50.119Z,52.70
2019-04-19T18:57:09.657Z,53.30
2019-04-19T18:59:38.546Z,52.70
2019-04-19T19:02:10.511Z,52.90
2019-04-19T19:04:36.992Z,53.10
2019-04-19T19:07:12.204Z,53.20
2019-04-19T19:09:42.284Z,53.40
2019-04-19T19:12:08.887Z,53.50
2019-04-19T19:14:35.233Z,53.60
2019-04-19T19:17:06.884Z,53.90
2019-04-19T19:19:35.237Z,54.00
2019-04-19T19:22:02.307Z,54.20
2019-04-19T19:24:48.779Z,54.20
2019-04-19T19:27:09.430Z,54.60
2019-04-19T19:29:30.022Z,54.60
2019-04-19T19:32:03.698Z,54.80
2019-04-19T19:34:31.079Z,54.90
2019-04-19T19:36:58.800Z,55.10
2019-04-19T19:39:34.582Z,55.20
2019-04-19T19:44:39.407Z,55.70
2019-04-19T19:47:42.501Z,55.80
2019-04-19T19:50:14.921Z,56.00
2019-04-19T19:52:28.553Z,55.80
2019-04-19T19:55:06.183Z,55.90
2019-04-19T19:57:31.356Z,55.90
2019-04-19T20:00:03.228Z,56.00
2019-04-19T20:02:25.781Z,55.50
2019-04-19T20:04:44.911Z,55.50
2019-04-19T20:07:16.734Z,55.30
2019-04-19T20:09:44.904Z,55.10
2019-04-19T20:12:18.060Z,54.90
2019-04-19T20:14:43.526Z,55.20
2019-04-19T20:17:15.005Z,54.70
2019-04-19T20:19:41.519Z,54.60
2019-04-19T20:22:10.559Z,54.90
2019-04-19T20:24:52.727Z,55.00
2019-04-19T20:27:15.491Z,55.20
2019-04-19T20:29:39.437Z,55.00
2019-04-19T20:32:12.489Z,55.60
2019-04-19T20:34:38.494Z,55.10
2019-04-19T20:37:08.851Z,54.90
2019-04-19T20:39:37.725Z,54.60
2019-04-19T20:42:07.935Z,54.60
2019-04-19T20:44:52.430Z,54.50
2019-04-19T20:47:06.249Z,54.30
2019-04-19T20:49:40.032Z,54.20
2019-04-19T20:52:14.316Z,54.00
2019-04-19T20:54:58.680Z,54.00
2019-04-19T20:57:37.829Z,54.10
2019-04-19T20:59:57.406Z,54.20
2019-04-19T21:02:30.778Z,54.00
2019-04-19T21:04:58.749Z,54.10
2019-04-19T21:07:28.243Z,54.30
2019-04-19T21:09:53.905Z,54.20
2019-04-19T21:12:27.544Z,54.40
2019-04-19T21:14:52.523Z,54.50
2019-04-19T21:17:20.926Z,54.50
2019-04-19T21:19:51.595Z,54.60
2019-04-19T21:22:25.657Z,54.60
2019-04-19T21:25:02.087Z,54.80
2019-04-19T21:27:22.385Z,55.00
2019-04-19T21:29:48.067Z,55.00
2019-04-19T21:32:20.905Z,55.10
2019-04-19T21:34:45.924Z,55.90
2019-04-19T21:37:21.447Z,55.60
2019-04-19T21:39:47.918Z,55.70
2019-04-19T21:42:14.212Z,55.90
2019-04-19T21:44:44.486Z,56.10
2019-04-19T21:47:12.902Z,57.00
2019-04-19T21:49:44.346Z,56.60
2019-04-19T21:52:17.367Z,56.80
2019-04-19T21:54:42.071Z,56.90
2019-04-19T21:57:10.013Z,57.20
2019-04-19T21:59:40.648Z,57.30
2019-04-19T22:02:07.632Z,57.40
2019-04-19T22:04:44.814Z,57.60
2019-04-19T22:07:08.739Z,57.60
2019-04-19T22:09:36.487Z,57.80
2019-04-19T22:12:06.026Z,58.10
2019-04-19T22:14:34.417Z,58.00
2019-04-19T22:17:05.540Z,57.90
2019-04-19T22:19:34.898Z,58.00
2019-04-19T22:22:01.402Z,58.10
2019-04-19T22:24:34.042Z,58.10
2019-04-19T22:26:59.633Z,58.20
2019-04-19T22:29:29.364Z,58.30
2019-04-19T22:32:04.626Z,58.20
2019-04-19T22:34:28.441Z,58.40
2019-04-19T22:36:58.601Z,58.30
2019-04-19T22:39:26.040Z,58.50
2019-04-19T22:41:54.830Z,58.60
2019-04-19T22:44:22.987Z,58.60
2019-04-19T22:46:54.537Z,58.70
2019-04-19T22:49:20.374Z,58.60
2019-04-19T22:51:48.860Z,58.70
2019-04-19T22:54:17.076Z,58.60
2019-04-19T22:56:58.808Z,58.60
2019-04-19T22:59:16.986Z,58.40
2019-04-19T23:01:57.349Z,58.50
2019-04-19T23:04:25.971Z,58.30
2019-04-19T23:06:58.805Z,57.90
2019-04-19T23:09:24.763Z,58.00
2019-04-19T23:11:53.435Z,57.80
2019-04-19T23:14:43.285Z,57.80
2019-04-19T23:17:10.452Z,57.80
2019-04-19T23:19:43.406Z,57.80
2019-04-19T23:22:08.356Z,57.90
2019-04-19T23:24:43.740Z,57.80
2019-04-19T23:27:18.453Z,57.90
2019-04-19T23:29:36.374Z,57.90
2019-04-19T23:32:04.430Z,58.10
2019-04-19T23:34:32.215Z,58.20
2019-04-19T23:37:06.501Z,58.20
2019-04-19T23:39:29.614Z,58.40
2019-04-19T23:41:57.472Z,58.50
2019-04-19T23:44:26.553Z,58.40
2019-04-19T23:46:58.812Z,58.40
2019-04-19T23:49:24.151Z,58.40
2019-04-19T23:51:52.016Z,58.50
2019-04-19T23:54:25.301Z,58.50
2019-04-19T23:57:00.568Z,58.50
2019-04-19T23:59:20.902Z,58.50
